sensor_id;sensor_type;location;lat;lon;timestamp;pressure;altitude;pressure_sealevel;temperature;humidity
70027;BME280;57506;50.092;15.804;2022-07-29T00:00:28;99239.00;;;12.69;88.74
70027;BME280;57506;50.092;15.804;2022-07-29T00:02:54;99222.78;;;12.63;88.69
70027;BME280;57506;50.092;15.804;2022-07-29T00:05:19;99246.47;;;12.67;89.02
70027;BME280;57506;50.092;15.804;2022-07-29T00:07:45;99240.66;;;12.70;89.46
70027;BME280;57506;50.092;15.804;2022-07-29T00:10:11;99253.38;;;12.83;90.69
70027;BME280;57506;50.092;15.804;2022-07-29T00:12:36;99251.31;;;12.91;88.97
70027;BME280;57506;50.092;15.804;2022-07-29T00:15:03;99256.50;;;13.00;89.60
70027;BME280;57506;50.092;15.804;2022-07-29T00:17:28;99244.22;;;12.90;89.10
70027;BME280;57506;50.092;15.804;2022-07-29T00:19:54;99253.78;;;13.00;88.24
70027;BME280;57506;50.092;15.804;2022-07-29T00:22:20;99244.88;;;13.12;86.25
70027;BME280;57506;50.092;15.804;2022-07-29T00:24:47;99250.28;;;13.45;84.97
70027;BME280;57506;50.092;15.804;2022-07-29T00:27:14;99236.88;;;13.70;83.41
70027;BME280;57506;50.092;15.804;2022-07-29T00:29:39;99231.03;;;13.80;84.21
70027;BME280;57506;50.092;15.804;2022-07-29T00:32:05;99237.66;;;13.84;88.18
70027;BME280;57506;50.092;15.804;2022-07-29T00:34:31;99234.16;;;13.70;86.53
70027;BME280;57506;50.092;15.804;2022-07-29T00:37:15;99242.75;;;13.60;89.63
70027;BME280;57506;50.092;15.804;2022-07-29T00:39:41;99246.69;;;13.51;90.20
70027;BME280;57506;50.092;15.804;2022-07-29T00:42:06;99236.09;;;13.56;86.80
70027;BME280;57506;50.092;15.804;2022-07-29T00:44:39;99245.88;;;13.57;86.42
70027;BME280;57506;50.092;15.804;2022-07-29T00:47:05;99235.88;;;13.51;85.05
70027;BME280;57506;50.092;15.804;2022-07-29T00:49:32;99241.91;;;13.60;88.66
70027;BME280;57506;50.092;15.804;2022-07-29T00:52:06;99232.75;;;13.48;88.91
70027;BME280;57506;50.092;15.804;2022-07-29T00:54:33;99234.03;;;13.45;88.12
70027;BME280;57506;50.092;15.804;2022-07-29T00:56:58;99232.78;;;13.35;89.40
70027;BME280;57506;50.092;15.804;2022-07-29T00:59:25;99221.16;;;13.21;88.44
70027;BME280;57506;50.092;15.804;2022-07-29T01:01:52;99219.06;;;13.29;86.85
70027;BME280;57506;50.092;15.804;2022-07-29T01:04:19;99227.59;;;13.26;86.80
70027;BME280;57506;50.092;15.804;2022-07-29T01:06:45;99215.31;;;13.11;87.94
70027;BME280;57506;50.092;15.804;2022-07-29T01:09:12;99221.97;;;13.02;89.31
70027;BME280;57506;50.092;15.804;2022-07-29T01:11:38;99216.13;;;12.91;88.45
70027;BME280;57506;50.092;15.804;2022-07-29T01:14:06;99201.78;;;12.65;91.10
70027;BME280;57506;50.092;15.804;2022-07-29T01:16:54;99209.25;;;12.56;90.30
70027;BME280;57506;50.092;15.804;2022-07-29T01:21:57;99219.41;;;12.41;91.57
70027;BME280;57506;50.092;15.804;2022-07-29T01:30:05;99205.53;;;12.70;91.13
70027;BME280;57506;50.092;15.804;2022-07-29T01:32:36;99185.56;;;12.91;89.70
70027;BME280;57506;50.092;15.804;2022-07-29T01:35:21;99192.00;;;13.10;88.38
70027;BME280;57506;50.092;15.804;2022-07-29T01:40:47;99169.97;;;12.73;89.91
70027;BME280;57506;50.092;15.804;2022-07-29T01:43:16;99190.16;;;12.64;90.56
70027;BME280;57506;50.092;15.804;2022-07-29T01:45:53;99183.25;;;12.55;89.91
70027;BME280;57506;50.092;15.804;2022-07-29T01:48:24;99184.94;;;12.49;90.38
70027;BME280;57506;50.092;15.804;2022-07-29T01:56:10;99174.09;;;12.36;90.04
70027;BME280;57506;50.092;15.804;2022-07-29T01:58:40;99174.94;;;12.43;87.74
70027;BME280;57506;50.092;15.804;2022-07-29T02:01:08;99170.38;;;12.44;90.15
70027;BME280;57506;50.092;15.804;2022-07-29T02:03:36;99164.16;;;12.50;87.51
70027;BME280;57506;50.092;15.804;2022-07-29T02:06:04;99158.28;;;12.40;89.95
70027;BME280;57506;50.092;15.804;2022-07-29T02:08:33;99172.03;;;12.51;90.07
70027;BME280;57506;50.092;15.804;2022-07-29T02:11:00;99164.56;;;12.47;85.04
70027;BME280;57506;50.092;15.804;2022-07-29T02:13:27;99152.47;;;12.36;86.09
70027;BME280;57506;50.092;15.804;2022-07-29T02:15:55;99160.56;;;12.30;89.58
70027;BME280;57506;50.092;15.804;2022-07-29T02:18:23;99143.69;;;12.01;90.69
70027;BME280;57506;50.092;15.804;2022-07-29T02:20:53;99141.06;;;11.73;92.07
70027;BME280;57506;50.092;15.804;2022-07-29T02:23:23;99148.97;;;11.75;93.32
70027;BME280;57506;50.092;15.804;2022-07-29T02:25:52;99144.41;;;11.75;94.94
70027;BME280;57506;50.092;15.804;2022-07-29T02:28:19;99147.38;;;11.87;93.91
70027;BME280;57506;50.092;15.804;2022-07-29T02:30:46;99145.91;;;11.78;92.47
70027;BME280;57506;50.092;15.804;2022-07-29T02:33:14;99166.28;;;11.87;93.27
70027;BME280;57506;50.092;15.804;2022-07-29T02:35:41;99176.78;;;11.69;93.89
70027;BME280;57506;50.092;15.804;2022-07-29T02:38:12;99169.44;;;11.49;94.96
70027;BME280;57506;50.092;15.804;2022-07-29T02:41:00;99160.06;;;11.45;93.90
70027;BME280;57506;50.092;15.804;2022-07-29T02:43:27;99177.91;;;11.46;94.78
70027;BME280;57506;50.092;15.804;2022-07-29T02:45:54;99169.97;;;11.38;95.85
70027;BME280;57506;50.092;15.804;2022-07-29T02:48:48;99169.97;;;11.38;96.69
70027;BME280;57506;50.092;15.804;2022-07-29T02:51:31;99177.53;;;11.49;96.71
70027;BME280;57506;50.092;15.804;2022-07-29T02:54:01;99183.31;;;11.87;94.30
70027;BME280;57506;50.092;15.804;2022-07-29T02:56:31;99181.94;;;12.18;93.32
70027;BME280;57506;50.092;15.804;2022-07-29T02:59:03;99175.13;;;12.42;92.17
70027;BME280;57506;50.092;15.804;2022-07-29T03:01:31;99171.00;;;12.46;91.20
70027;BME280;57506;50.092;15.804;2022-07-29T03:04:01;99192.84;;;12.64;89.99
70027;BME280;57506;50.092;15.804;2022-07-29T03:06:28;99182.22;;;12.69;89.19
70027;BME280;57506;50.092;15.804;2022-07-29T03:08:57;99183.28;;;12.75;93.27
70027;BME280;57506;50.092;15.804;2022-07-29T03:11:24;99177.44;;;12.71;91.97
70027;BME280;57506;50.092;15.804;2022-07-29T03:13:50;99159.53;;;12.83;89.34
70027;BME280;57506;50.092;15.804;2022-07-29T03:16:18;99167.25;;;12.93;87.97
70027;BME280;57506;50.092;15.804;2022-07-29T03:18:44;99178.69;;;13.08;91.05
70027;BME280;57506;50.092;15.804;2022-07-29T03:21:10;99168.28;;;13.12;91.29
70027;BME280;57506;50.092;15.804;2022-07-29T03:23:35;99159.94;;;13.13;90.02
70027;BME280;57506;50.092;15.804;2022-07-29T03:26:01;99162.44;;;13.21;90.70
70027;BME280;57506;50.092;15.804;2022-07-29T03:28:26;99165.31;;;13.33;94.38
70027;BME280;57506;50.092;15.804;2022-07-29T03:30:53;99174.47;;;13.39;93.39
70027;BME280;57506;50.092;15.804;2022-07-29T03:33:18;99175.09;;;13.41;92.73
70027;BME280;57506;50.092;15.804;2022-07-29T03:35:44;99162.41;;;13.41;90.76
70027;BME280;57506;50.092;15.804;2022-07-29T03:38:10;99167.56;;;13.56;87.63
70027;BME280;57506;50.092;15.804;2022-07-29T03:40:40;99162.09;;;13.69;86.28
70027;BME280;57506;50.092;15.804;2022-07-29T03:43:08;99151.25;;;13.76;86.58
70027;BME280;57506;50.092;15.804;2022-07-29T03:45:36;99148.44;;;13.95;89.45
70027;BME280;57506;50.092;15.804;2022-07-29T03:48:07;99140.44;;;14.07;93.39
70027;BME280;57506;50.092;15.804;2022-07-29T03:50:34;99143.34;;;14.12;93.13
70027;BME280;57506;50.092;15.804;2022-07-29T03:53:20;99160.25;;;14.01;92.56
70027;BME280;57506;50.092;15.804;2022-07-29T04:20:15;99154.03;;;15.50;82.40
70027;BME280;57506;50.092;15.804;2022-07-29T04:40:22;99136.22;;;15.90;81.12
70027;BME280;57506;50.092;15.804;2022-07-29T04:42:47;99162.66;;;16.13;79.43
70027;BME280;57506;50.092;15.804;2022-07-29T04:45:13;99171.56;;;16.20;78.73
70027;BME280;57506;50.092;15.804;2022-07-29T04:48:02;99173.50;;;16.31;79.34
70027;BME280;57506;50.092;15.804;2022-07-29T04:50:29;99168.81;;;16.38;79.12
70027;BME280;57506;50.092;15.804;2022-07-29T04:52:54;99166.84;;;16.27;80.20
70027;BME280;57506;50.092;15.804;2022-07-29T04:55:20;99157.88;;;16.27;77.92
70027;BME280;57506;50.092;15.804;2022-07-29T04:57:45;99132.53;;;16.15;77.86
70027;BME280;57506;50.092;15.804;2022-07-29T05:00:11;99162.47;;;16.26;75.39
70027;BME280;57506;50.092;15.804;2022-07-29T05:02:37;99166.53;;;16.35;76.56
70027;BME280;57506;50.092;15.804;2022-07-29T05:05:03;99157.56;;;16.47;75.82
70027;BME280;57506;50.092;15.804;2022-07-29T05:07:28;99184.75;;;16.65;76.13
70027;BME280;57506;50.092;15.804;2022-07-29T05:09:54;99176.13;;;16.68;74.95
70027;BME280;57506;50.092;15.804;2022-07-29T05:12:23;99170.91;;;16.66;75.82
70027;BME280;57506;50.092;15.804;2022-07-29T05:14:48;99162.16;;;16.76;73.51
70027;BME280;57506;50.092;15.804;2022-07-29T05:17:14;99151.03;;;16.89;74.89
70027;BME280;57506;50.092;15.804;2022-07-29T05:19:39;99156.53;;;17.01;76.62
70027;BME280;57506;50.092;15.804;2022-07-29T05:22:05;99175.69;;;17.29;76.50
70027;BME280;57506;50.092;15.804;2022-07-29T05:24:31;99159.78;;;17.38;76.53
70027;BME280;57506;50.092;15.804;2022-07-29T05:26:57;99153.06;;;17.52;74.09
70027;BME280;57506;50.092;15.804;2022-07-29T05:29:22;99145.22;;;17.44;75.34
70027;BME280;57506;50.092;15.804;2022-07-29T05:31:48;99143.66;;;17.60;75.30
70027;BME280;57506;50.092;15.804;2022-07-29T05:34:13;99165.94;;;17.80;74.33
70027;BME280;57506;50.092;15.804;2022-07-29T05:36:39;99159.84;;;17.90;74.44
70027;BME280;57506;50.092;15.804;2022-07-29T05:39:04;99170.84;;;17.95;72.34
70027;BME280;57506;50.092;15.804;2022-07-29T05:41:33;99183.44;;;18.24;70.51
70027;BME280;57506;50.092;15.804;2022-07-29T05:43:58;99151.88;;;18.28;72.12
70027;BME280;57506;50.092;15.804;2022-07-29T05:46:26;99178.53;;;18.66;69.33
70027;BME280;57506;50.092;15.804;2022-07-29T05:48:52;99167.53;;;18.78;70.68
70027;BME280;57506;50.092;15.804;2022-07-29T05:51:17;99181.50;;;18.81;70.35
70027;BME280;57506;50.092;15.804;2022-07-29T05:53:42;99174.22;;;18.87;69.48
70027;BME280;57506;50.092;15.804;2022-07-29T05:56:09;99176.28;;;18.97;70.83
70027;BME280;57506;50.092;15.804;2022-07-29T05:58:35;99167.63;;;18.83;68.69
70027;BME280;57506;50.092;15.804;2022-07-29T06:01:01;99167.19;;;18.91;69.27
70027;BME280;57506;50.092;15.804;2022-07-29T06:03:27;99166.34;;;19.07;68.38
70027;BME280;57506;50.092;15.804;2022-07-29T06:05:52;99161.59;;;19.19;67.31
70027;BME280;57506;50.092;15.804;2022-07-29T06:08:18;99160.91;;;19.46;68.77
70027;BME280;57506;50.092;15.804;2022-07-29T06:10:44;99164.88;;;19.55;68.40
70027;BME280;57506;50.092;15.804;2022-07-29T06:13:10;99165.38;;;19.52;67.22
70027;BME280;57506;50.092;15.804;2022-07-29T06:15:36;99162.34;;;19.70;67.38
70027;BME280;57506;50.092;15.804;2022-07-29T06:18:02;99164.00;;;19.71;66.26
70027;BME280;57506;50.092;15.804;2022-07-29T06:20:28;99177.94;;;19.91;66.04
70027;BME280;57506;50.092;15.804;2022-07-29T06:22:57;99179.69;;;20.24;66.38
70027;BME280;57506;50.092;15.804;2022-07-29T06:25:22;99179.31;;;20.16;65.47
70027;BME280;57506;50.092;15.804;2022-07-29T06:27:49;99172.34;;;20.30;65.54
70027;BME280;57506;50.092;15.804;2022-07-29T06:30:14;99168.50;;;20.26;65.72
70027;BME280;57506;50.092;15.804;2022-07-29T06:32:40;99172.31;;;20.25;65.69
70027;BME280;57506;50.092;15.804;2022-07-29T06:35:06;99160.72;;;20.40;65.85
70027;BME280;57506;50.092;15.804;2022-07-29T06:37:31;99167.53;;;20.37;66.54
70027;BME280;57506;50.092;15.804;2022-07-29T06:39:57;99175.00;;;20.42;65.44
70027;BME280;57506;50.092;15.804;2022-07-29T06:42:44;99162.56;;;20.34;65.65
70027;BME280;57506;50.092;15.804;2022-07-29T06:45:11;99166.78;;;20.42;66.42
70027;BME280;57506;50.092;15.804;2022-07-29T06:47:36;99163.81;;;20.48;66.53
70027;BME280;57506;50.092;15.804;2022-07-29T06:50:02;99156.06;;;20.67;67.23
70027;BME280;57506;50.092;15.804;2022-07-29T06:52:28;99174.09;;;20.95;65.66
70027;BME280;57506;50.092;15.804;2022-07-29T06:55:13;99183.88;;;21.18;67.10
70027;BME280;57506;50.092;15.804;2022-07-29T06:57:39;99174.78;;;21.12;65.33
70027;BME280;57506;50.092;15.804;2022-07-29T07:00:05;99159.28;;;21.23;64.55
70027;BME280;57506;50.092;15.804;2022-07-29T07:02:31;99163.16;;;21.32;64.98
70027;BME280;57506;50.092;15.804;2022-07-29T07:04:57;99165.69;;;21.39;64.81
70027;BME280;57506;50.092;15.804;2022-07-29T07:07:24;99159.88;;;21.82;64.78
70027;BME280;57506;50.092;15.804;2022-07-29T07:09:49;99155.53;;;21.91;64.32
70027;BME280;57506;50.092;15.804;2022-07-29T07:12:15;99154.94;;;21.84;65.14
70027;BME280;57506;50.092;15.804;2022-07-29T07:14:40;99142.84;;;21.80;65.57
70027;BME280;57506;50.092;15.804;2022-07-29T07:17:06;99151.94;;;21.86;66.92
70027;BME280;57506;50.092;15.804;2022-07-29T07:19:32;99140.50;;;22.04;64.93
70027;BME280;57506;50.092;15.804;2022-07-29T07:21:58;99156.56;;;21.80;66.24
70027;BME280;57506;50.092;15.804;2022-07-29T07:24:23;99147.03;;;21.98;66.08
70027;BME280;57506;50.092;15.804;2022-07-29T07:26:48;99140.69;;;21.87;66.75
70027;BME280;57506;50.092;15.804;2022-07-29T07:29:14;99139.88;;;21.87;66.90
70027;BME280;57506;50.092;15.804;2022-07-29T07:31:39;99135.03;;;22.14;65.94
70027;BME280;57506;50.092;15.804;2022-07-29T07:34:05;99143.00;;;22.26;64.32
70027;BME280;57506;50.092;15.804;2022-07-29T07:36:30;99141.09;;;22.26;63.33
70027;BME280;57506;50.092;15.804;2022-07-29T07:38:56;99144.16;;;22.45;65.13
70027;BME280;57506;50.092;15.804;2022-07-29T07:41:22;99152.97;;;22.57;64.26
70027;BME280;57506;50.092;15.804;2022-07-29T07:43:47;99155.47;;;22.89;62.89
70027;BME280;57506;50.092;15.804;2022-07-29T07:46:13;99159.81;;;22.50;62.77
70027;BME280;57506;50.092;15.804;2022-07-29T07:48:39;99149.72;;;22.86;62.82
70027;BME280;57506;50.092;15.804;2022-07-29T07:51:04;99140.06;;;23.24;60.79
70027;BME280;57506;50.092;15.804;2022-07-29T07:53:30;99159.84;;;23.26;60.18
70027;BME280;57506;50.092;15.804;2022-07-29T07:55:55;99159.53;;;23.48;60.79
70027;BME280;57506;50.092;15.804;2022-07-29T07:58:21;99155.69;;;23.59;59.03
70027;BME280;57506;50.092;15.804;2022-07-29T08:00:47;99167.78;;;23.63;59.36
70027;BME280;57506;50.092;15.804;2022-07-29T08:03:13;99173.88;;;23.24;58.88
70027;BME280;57506;50.092;15.804;2022-07-29T08:05:39;99171.69;;;23.11;59.34
70027;BME280;57506;50.092;15.804;2022-07-29T08:08:06;99165.09;;;22.97;60.17
70027;BME280;57506;50.092;15.804;2022-07-29T08:10:32;99175.81;;;22.93;59.64
70027;BME280;57506;50.092;15.804;2022-07-29T08:13:16;99176.09;;;23.02;59.48
70027;BME280;57506;50.092;15.804;2022-07-29T08:15:41;99152.22;;;22.87;59.49
70027;BME280;57506;50.092;15.804;2022-07-29T08:18:08;99157.94;;;22.71;60.58
70027;BME280;57506;50.092;15.804;2022-07-29T08:20:35;99155.72;;;22.52;60.61
70027;BME280;57506;50.092;15.804;2022-07-29T08:23:02;99176.94;;;22.82;60.74
70027;BME280;57506;50.092;15.804;2022-07-29T08:25:28;99165.09;;;22.92;60.71
70027;BME280;57506;50.092;15.804;2022-07-29T08:27:53;99161.81;;;23.20;59.23
70027;BME280;57506;50.092;15.804;2022-07-29T08:30:19;99161.53;;;23.17;59.54
70027;BME280;57506;50.092;15.804;2022-07-29T08:32:47;99168.34;;;23.45;59.43
70027;BME280;57506;50.092;15.804;2022-07-29T08:35:14;99169.44;;;23.64;57.59
70027;BME280;57506;50.092;15.804;2022-07-29T08:37:40;99160.06;;;23.70;58.91
70027;BME280;57506;50.092;15.804;2022-07-29T08:40:06;99158.41;;;23.69;55.98
70027;BME280;57506;50.092;15.804;2022-07-29T08:42:31;99147.91;;;23.86;56.66
70027;BME280;57506;50.092;15.804;2022-07-29T08:44:57;99156.59;;;24.08;55.61
70027;BME280;57506;50.092;15.804;2022-07-29T08:47:24;99158.28;;;23.99;54.51
70027;BME280;57506;50.092;15.804;2022-07-29T08:49:51;99167.41;;;24.49;55.22
70027;BME280;57506;50.092;15.804;2022-07-29T08:52:18;99162.63;;;24.65;52.75
70027;BME280;57506;50.092;15.804;2022-07-29T08:54:44;99173.38;;;24.66;55.66
70027;BME280;57506;50.092;15.804;2022-07-29T08:57:12;99162.00;;;24.73;54.31
70027;BME280;57506;50.092;15.804;2022-07-29T08:59:40;99174.41;;;24.70;54.86
70027;BME280;57506;50.092;15.804;2022-07-29T09:02:16;99168.63;;;25.11;54.66
70027;BME280;57506;50.092;15.804;2022-07-29T09:04:43;99159.41;;;25.21;55.11
70027;BME280;57506;50.092;15.804;2022-07-29T09:07:10;99172.09;;;25.22;53.05
70027;BME280;57506;50.092;15.804;2022-07-29T09:09:39;99167.09;;;24.95;54.39
70027;BME280;57506;50.092;15.804;2022-07-29T09:12:05;99172.88;;;25.27;54.68
70027;BME280;57506;50.092;15.804;2022-07-29T09:14:33;99176.50;;;24.89;55.79
70027;BME280;57506;50.092;15.804;2022-07-29T09:16:59;99166.53;;;24.98;54.48
70027;BME280;57506;50.092;15.804;2022-07-29T09:19:30;99175.00;;;24.67;54.60
70027;BME280;57506;50.092;15.804;2022-07-29T09:21:58;99170.72;;;24.51;56.96
70027;BME280;57506;50.092;15.804;2022-07-29T09:24:26;99174.16;;;25.06;54.54
70027;BME280;57506;50.092;15.804;2022-07-29T09:26:51;99171.50;;;24.96;55.97
70027;BME280;57506;50.092;15.804;2022-07-29T09:29:23;99154.91;;;25.59;54.59
70027;BME280;57506;50.092;15.804;2022-07-29T09:31:52;99154.94;;;25.54;51.52
70027;BME280;57506;50.092;15.804;2022-07-29T09:34:28;99162.47;;;25.19;53.30
70027;BME280;57506;50.092;15.804;2022-07-29T09:36:56;99161.03;;;25.27;50.24
70027;BME280;57506;50.092;15.804;2022-07-29T09:39:33;99153.72;;;25.12;53.39
70027;BME280;57506;50.092;15.804;2022-07-29T09:42:04;99164.06;;;25.25;51.97
70027;BME280;57506;50.092;15.804;2022-07-29T09:44:57;99164.84;;;25.31;53.88
70027;BME280;57506;50.092;15.804;2022-07-29T09:47:43;99151.94;;;25.50;53.59
70027;BME280;57506;50.092;15.804;2022-07-29T09:50:15;99140.03;;;26.02;53.84
70027;BME280;57506;50.092;15.804;2022-07-29T09:52:46;99144.88;;;25.68;54.13
70027;BME280;57506;50.092;15.804;2022-07-29T09:55:12;99147.13;;;25.08;55.75
70027;BME280;57506;50.092;15.804;2022-07-29T09:57:38;99141.28;;;25.43;56.39
70027;BME280;57506;50.092;15.804;2022-07-29T10:00:12;99142.59;;;25.22;55.67
70027;BME280;57506;50.092;15.804;2022-07-29T10:02:40;99145.06;;;24.95;56.68
70027;BME280;57506;50.092;15.804;2022-07-29T10:05:17;99141.00;;;25.16;55.53
70027;BME280;57506;50.092;15.804;2022-07-29T10:07:48;99134.78;;;24.66;57.21
70027;BME280;57506;50.092;15.804;2022-07-29T10:10:32;99137.84;;;24.99;56.34
70027;BME280;57506;50.092;15.804;2022-07-29T10:13:06;99141.19;;;25.25;54.84
70027;BME280;57506;50.092;15.804;2022-07-29T10:15:36;99136.97;;;25.32;56.64
70027;BME280;57506;50.092;15.804;2022-07-29T10:18:03;99129.44;;;25.38;53.51
70027;BME280;57506;50.092;15.804;2022-07-29T10:20:29;99130.97;;;24.91;54.30
70027;BME280;57506;50.092;15.804;2022-07-29T10:22:56;99126.28;;;24.97;54.67
70027;BME280;57506;50.092;15.804;2022-07-29T10:25:23;99101.81;;;25.43;52.80
70027;BME280;57506;50.092;15.804;2022-07-29T10:27:50;99111.47;;;26.12;52.34
70027;BME280;57506;50.092;15.804;2022-07-29T10:30:18;99125.19;;;26.17;51.62
70027;BME280;57506;50.092;15.804;2022-07-29T10:44:17;99113.84;;;26.19;48.88
70027;BME280;57506;50.092;15.804;2022-07-29T10:46:44;99118.88;;;26.54;47.21
70027;BME280;57506;50.092;15.804;2022-07-29T10:49:17;99108.91;;;26.72;46.84
70027;BME280;57506;50.092;15.804;2022-07-29T10:54:46;99124.19;;;26.51;50.76
70027;BME280;57506;50.092;15.804;2022-07-29T10:57:27;99117.47;;;26.38;47.85
70027;BME280;57506;50.092;15.804;2022-07-29T11:05:25;99129.84;;;26.78;51.35
70027;BME280;57506;50.092;15.804;2022-07-29T11:10:39;99134.22;;;26.79;48.88
70027;BME280;57506;50.092;15.804;2022-07-29T11:13:05;99127.78;;;26.83;50.44
70027;BME280;57506;50.092;15.804;2022-07-29T11:15:56;99128.53;;;27.08;48.86
70027;BME280;57506;50.092;15.804;2022-07-29T11:18:22;99127.84;;;26.46;51.27
70027;BME280;57506;50.092;15.804;2022-07-29T11:20:52;99123.50;;;26.77;50.19
70027;BME280;57506;50.092;15.804;2022-07-29T11:23:28;99119.97;;;26.72;51.08
70027;BME280;57506;50.092;15.804;2022-07-29T11:28:57;99132.16;;;27.49;49.35
70027;BME280;57506;50.092;15.804;2022-07-29T11:31:44;99123.81;;;27.08;49.40
70027;BME280;57506;50.092;15.804;2022-07-29T11:34:16;99120.91;;;27.00;49.26
70027;BME280;57506;50.092;15.804;2022-07-29T11:39:30;99124.34;;;26.92;49.46
70027;BME280;57506;50.092;15.804;2022-07-29T11:44:56;99124.84;;;26.24;52.91
70027;BME280;57506;50.092;15.804;2022-07-29T11:47:23;99127.78;;;26.83;50.27
70027;BME280;57506;50.092;15.804;2022-07-29T11:49:53;99120.31;;;27.03;50.82
70027;BME280;57506;50.092;15.804;2022-07-29T11:52:20;99124.06;;;27.39;51.89
70027;BME280;57506;50.092;15.804;2022-07-29T11:54:47;99118.31;;;27.49;50.68
70027;BME280;57506;50.092;15.804;2022-07-29T11:57:15;99122.09;;;27.26;49.75
70027;BME280;57506;50.092;15.804;2022-07-29T11:59:43;99127.94;;;27.25;49.41
70027;BME280;57506;50.092;15.804;2022-07-29T12:02:09;99123.50;;;26.77;53.08
70027;BME280;57506;50.092;15.804;2022-07-29T12:09:53;99114.38;;;26.21;53.97
70027;BME280;57506;50.092;15.804;2022-07-29T12:12:20;99115.69;;;26.79;51.84
70027;BME280;57506;50.092;15.804;2022-07-29T12:14:45;99117.88;;;27.15;51.65
70027;BME280;57506;50.092;15.804;2022-07-29T12:17:29;99115.28;;;26.72;53.27
70027;BME280;57506;50.092;15.804;2022-07-29T12:19:56;99113.31;;;26.17;54.21
70027;BME280;57506;50.092;15.804;2022-07-29T12:22:37;99120.72;;;26.21;54.13
70027;BME280;57506;50.092;15.804;2022-07-29T12:25:13;99116.75;;;26.08;53.60
70027;BME280;57506;50.092;15.804;2022-07-29T12:27:41;99119.00;;;26.06;52.92
70027;BME280;57506;50.092;15.804;2022-07-29T12:30:10;99115.06;;;26.12;53.17
70027;BME280;57506;50.092;15.804;2022-07-29T12:32:46;99106.13;;;26.39;51.78
70027;BME280;57506;50.092;15.804;2022-07-29T12:35:17;99106.31;;;25.82;55.57
70027;BME280;57506;50.092;15.804;2022-07-29T12:37:47;99108.09;;;25.49;54.33
70027;BME280;57506;50.092;15.804;2022-07-29T12:40:16;99107.69;;;25.60;54.73
70027;BME280;57506;50.092;15.804;2022-07-29T12:45:35;99108.63;;;25.27;56.60
70027;BME280;57506;50.092;15.804;2022-07-29T12:48:01;99100.47;;;25.40;57.07
70027;BME280;57506;50.092;15.804;2022-07-29T12:50:26;99094.03;;;25.74;55.01
70027;BME280;57506;50.092;15.804;2022-07-29T12:52:52;99095.88;;;25.31;55.79
70027;BME280;57506;50.092;15.804;2022-07-29T12:58:04;99100.34;;;25.51;55.84
70027;BME280;57506;50.092;15.804;2022-07-29T13:00:30;99098.22;;;25.42;56.04
70027;BME280;57506;50.092;15.804;2022-07-29T13:02:57;99100.56;;;25.54;56.76
70027;BME280;57506;50.092;15.804;2022-07-29T13:05:24;99104.59;;;25.67;57.40
70027;BME280;57506;50.092;15.804;2022-07-29T13:08:29;99101.47;;;25.73;56.28
70027;BME280;57506;50.092;15.804;2022-07-29T13:10:55;99095.59;;;25.56;56.60
70027;BME280;57506;50.092;15.804;2022-07-29T13:13:20;99088.19;;;25.28;56.95
70027;BME280;57506;50.092;15.804;2022-07-29T13:15:46;99088.94;;;25.33;56.67
70027;BME280;57506;50.092;15.804;2022-07-29T13:18:31;99085.16;;;25.29;55.11
70027;BME280;57506;50.092;15.804;2022-07-29T13:21:10;99092.66;;;25.48;56.15
70027;BME280;57506;50.092;15.804;2022-07-29T13:23:36;99087.53;;;25.36;57.48
70027;BME280;57506;50.092;15.804;2022-07-29T13:26:06;99080.03;;;25.41;53.70
70027;BME280;57506;50.092;15.804;2022-07-29T13:28:32;99089.75;;;25.34;56.99
70027;BME280;57506;50.092;15.804;2022-07-29T13:30:58;99085.41;;;25.04;57.32
70027;BME280;57506;50.092;15.804;2022-07-29T13:33:23;99084.69;;;24.88;57.74
70027;BME280;57506;50.092;15.804;2022-07-29T13:35:49;99085.59;;;24.84;58.59
70027;BME280;57506;50.092;15.804;2022-07-29T13:38:14;99079.19;;;24.88;58.48
70027;BME280;57506;50.092;15.804;2022-07-29T13:40:41;99065.09;;;24.95;58.55
70027;BME280;57506;50.092;15.804;2022-07-29T13:43:09;99069.13;;;25.02;58.17
70027;BME280;57506;50.092;15.804;2022-07-29T13:45:35;99060.53;;;25.09;59.79
70027;BME280;57506;50.092;15.804;2022-07-29T13:48:01;99063.72;;;25.21;58.17
70027;BME280;57506;50.092;15.804;2022-07-29T13:50:26;99061.16;;;25.30;58.66
70027;BME280;57506;50.092;15.804;2022-07-29T13:52:52;99065.13;;;25.42;55.90
70027;BME280;57506;50.092;15.804;2022-07-29T13:55:18;99062.00;;;25.73;57.65
70027;BME280;57506;50.092;15.804;2022-07-29T13:57:44;99060.13;;;25.68;54.90
70027;BME280;57506;50.092;15.804;2022-07-29T14:00:11;99056.53;;;25.68;56.65
70027;BME280;57506;50.092;15.804;2022-07-29T14:02:37;99046.72;;;25.62;57.21
70027;BME280;57506;50.092;15.804;2022-07-29T14:05:05;99051.19;;;25.53;57.38
70027;BME280;57506;50.092;15.804;2022-07-29T14:07:30;99048.09;;;25.35;56.65
70027;BME280;57506;50.092;15.804;2022-07-29T14:09:56;99057.97;;;25.41;55.59
70027;BME280;57506;50.092;15.804;2022-07-29T14:12:22;99043.28;;;25.46;54.63
70027;BME280;57506;50.092;15.804;2022-07-29T14:14:49;99044.81;;;25.33;55.83
70027;BME280;57506;50.092;15.804;2022-07-29T14:17:15;99053.25;;;25.66;57.06
70027;BME280;57506;50.092;15.804;2022-07-29T14:19:40;99055.91;;;25.76;56.36
70027;BME280;57506;50.092;15.804;2022-07-29T14:22:08;99045.53;;;26.05;56.35
70027;BME280;57506;50.092;15.804;2022-07-29T14:24:35;99046.28;;;25.92;54.05
70027;BME280;57506;50.092;15.804;2022-07-29T14:27:00;99040.59;;;26.02;54.91
70027;BME280;57506;50.092;15.804;2022-07-29T14:29:26;99036.91;;;26.12;53.93
70027;BME280;57506;50.092;15.804;2022-07-29T14:31:52;99053.16;;;26.32;54.46
70027;BME280;57506;50.092;15.804;2022-07-29T14:34:17;99035.53;;;26.28;53.76
70027;BME280;57506;50.092;15.804;2022-07-29T14:36:44;99043.56;;;26.62;53.46